Hauptseite
METAR-TAF:

METAR-TAF

Flughäfen :

Militärflugplatz Landivisiau

Landivisiau, Frankreich

Breite: 48-31N, Länge: 004-09W, Höhe: 106 m

Beobachtung

Neuester Wetterbericht von vor 37 Minuten, um 06:30 UTC
Wind 3 kt aus Süd/Südost
Temperatur 15°C
Luftfeuchtigkeit 82%
Luftdruck 1019 hPa
Sichtweite 10 km oder mehr
keine Wolken unter 1500 m und keine Kumulonimbus oder Gewitterwolken

METAR: LFRJ 180630Z AUTO 15003KT CAVOK 15/12 Q1019 NOSIG

Zeit: 09:07 (07:07 UTC)

Prognose

Neuester Wetterbericht von vor 2 Stunden und 5 Minuten, um 05:02 UTC
Gültige Prognose vom 18 um 06 UTC bis 18 um 15 UTC
Wind 2 kt aus unterschiedlichen Richtungen
Sichtweite 10 km oder mehr
Leicht bewölkt in der Höhe von 2500 ft
Übergehend zu
vom 18 um 11 UTC bis 18 um 13 UTC
Wind 10 kt aus Nord

TAF: LFRJ 180502Z 1806/1815 VRB02KT 9999 FEW025 BECMG 1811/1813 35010KT

Wetterbeobachtungen und Prognosen von mehr als 4000 Flughäfen (METAR und TAF Bericht).

Die verfügbaren Stationen werden durch gelbe und rote Markierungen auf der Karte dargestellt.

Führen Sie die Maus auf sie, um den Namen der Station zu sehen.

Darauf klicken, um die Beobachtung von Wetterbeobachtungen und Prognosen zu sehen.

Um die Karte zu ändern : klicken Sie auf den grünen Tasten mit einem schwarzen Kreuz Zum Vergrößern, auf den grünen Button mit einem Gedankenstrich zu verkleinern, oder auf die grünen Pfeile für benachbarte Karten.


METAR-TAF: